sensor_id;sensor_type;location;lat;lon;timestamp;temperature;humidity
54124;DHT22;55741;53.252;5.788;2023-07-20T00:01:17;14.90;99.90
54124;DHT22;55741;53.252;5.788;2023-07-20T00:03:43;14.90;99.90
54124;DHT22;55741;53.252;5.788;2023-07-20T00:06:09;14.90;99.90
54124;DHT22;55741;53.252;5.788;2023-07-20T00:08:34;14.80;99.90
54124;DHT22;55741;53.252;5.788;2023-07-20T00:11:00;14.80;99.90
54124;DHT22;55741;53.252;5.788;2023-07-20T00:13:27;14.70;99.90
54124;DHT22;55741;53.252;5.788;2023-07-20T00:15:53;14.70;99.90
54124;DHT22;55741;53.252;5.788;2023-07-20T00:18:19;14.60;99.90
54124;DHT22;55741;53.252;5.788;2023-07-20T00:20:47;14.60;99.90
54124;DHT22;55741;53.252;5.788;2023-07-20T00:23:13;14.60;99.90
54124;DHT22;55741;53.252;5.788;2023-07-20T00:25:39;14.50;99.90
54124;DHT22;55741;53.252;5.788;2023-07-20T00:28:05;14.50;99.90
54124;DHT22;55741;53.252;5.788;2023-07-20T00:30:31;14.50;99.90
54124;DHT22;55741;53.252;5.788;2023-07-20T00:32:57;14.40;99.90
54124;DHT22;55741;53.252;5.788;2023-07-20T00:35:22;14.40;99.90
54124;DHT22;55741;53.252;5.788;2023-07-20T00:37:48;14.30;99.90
54124;DHT22;55741;53.252;5.788;2023-07-20T00:40:14;14.30;99.90
54124;DHT22;55741;53.252;5.788;2023-07-20T00:42:40;14.30;99.90
54124;DHT22;55741;53.252;5.788;2023-07-20T00:45:06;14.20;99.90
54124;DHT22;55741;53.252;5.788;2023-07-20T00:47:32;14.20;99.90
54124;DHT22;55741;53.252;5.788;2023-07-20T00:49:58;14.20;99.90
54124;DHT22;55741;53.252;5.788;2023-07-20T00:52:25;14.10;99.90
54124;DHT22;55741;53.252;5.788;2023-07-20T00:54:53;14.10;99.90
54124;DHT22;55741;53.252;5.788;2023-07-20T00:57:24;14.00;99.90
54124;DHT22;55741;53.252;5.788;2023-07-20T00:59:51;14.10;99.90
54124;DHT22;55741;53.252;5.788;2023-07-20T01:02:17;14.00;99.90
54124;DHT22;55741;53.252;5.788;2023-07-20T01:04:43;14.00;99.90
54124;DHT22;55741;53.252;5.788;2023-07-20T01:07:26;13.90;99.90
54124;DHT22;55741;53.252;5.788;2023-07-20T01:10:12;13.90;99.90
54124;DHT22;55741;53.252;5.788;2023-07-20T01:12:43;13.90;99.90
54124;DHT22;55741;53.252;5.788;2023-07-20T01:15:09;13.90;99.90
54124;DHT22;55741;53.252;5.788;2023-07-20T01:17:35;13.80;99.90
54124;DHT22;55741;53.252;5.788;2023-07-20T01:20:02;13.80;99.90
54124;DHT22;55741;53.252;5.788;2023-07-20T01:28:23;13.70;99.90
54124;DHT22;55741;53.252;5.788;2023-07-20T01:33:41;13.70;99.90
54124;DHT22;55741;53.252;5.788;2023-07-20T01:36:07;13.70;99.90
54124;DHT22;55741;53.252;5.788;2023-07-20T01:38:34;13.60;99.90
54124;DHT22;55741;53.252;5.788;2023-07-20T01:41:01;13.60;99.90
54124;DHT22;55741;53.252;5.788;2023-07-20T01:43:27;13.60;99.90
54124;DHT22;55741;53.252;5.788;2023-07-20T01:45:53;13.50;99.90
54124;DHT22;55741;53.252;5.788;2023-07-20T01:48:19;13.50;99.90
54124;DHT22;55741;53.252;5.788;2023-07-20T01:50:45;13.50;99.90
54124;DHT22;55741;53.252;5.788;2023-07-20T01:53:11;13.50;99.90
54124;DHT22;55741;53.252;5.788;2023-07-20T01:55:37;13.50;99.90
54124;DHT22;55741;53.252;5.788;2023-07-20T01:58:04;13.50;99.90
54124;DHT22;55741;53.252;5.788;2023-07-20T02:00:31;13.50;99.90
54124;DHT22;55741;53.252;5.788;2023-07-20T02:02:57;13.40;99.90
54124;DHT22;55741;53.252;5.788;2023-07-20T02:05:23;13.40;99.90
54124;DHT22;55741;53.252;5.788;2023-07-20T02:07:49;13.40;99.90
54124;DHT22;55741;53.252;5.788;2023-07-20T02:10:14;13.40;99.90
54124;DHT22;55741;53.252;5.788;2023-07-20T02:12:40;13.40;99.90
54124;DHT22;55741;53.252;5.788;2023-07-20T02:15:07;13.30;99.90
54124;DHT22;55741;53.252;5.788;2023-07-20T02:17:33;13.30;99.90
54124;DHT22;55741;53.252;5.788;2023-07-20T02:19:59;13.30;99.90
54124;DHT22;55741;53.252;5.788;2023-07-20T02:22:25;13.30;99.90
54124;DHT22;55741;53.252;5.788;2023-07-20T02:24:51;13.30;99.90
54124;DHT22;55741;53.252;5.788;2023-07-20T02:27:17;13.30;99.90
54124;DHT22;55741;53.252;5.788;2023-07-20T02:29:43;13.30;99.90
54124;DHT22;55741;53.252;5.788;2023-07-20T02:32:09;13.20;99.90
54124;DHT22;55741;53.252;5.788;2023-07-20T02:34:37;13.20;99.90
54124;DHT22;55741;53.252;5.788;2023-07-20T02:37:04;13.20;99.90
54124;DHT22;55741;53.252;5.788;2023-07-20T02:39:30;13.20;99.90
54124;DHT22;55741;53.252;5.788;2023-07-20T02:41:56;13.20;99.90
54124;DHT22;55741;53.252;5.788;2023-07-20T02:44:22;13.20;99.90
54124;DHT22;55741;53.252;5.788;2023-07-20T02:46:48;13.20;99.90
54124;DHT22;55741;53.252;5.788;2023-07-20T02:49:15;13.20;99.90
54124;DHT22;55741;53.252;5.788;2023-07-20T02:51:41;13.20;99.90
54124;DHT22;55741;53.252;5.788;2023-07-20T02:54:07;13.20;99.90
54124;DHT22;55741;53.252;5.788;2023-07-20T02:56:34;13.20;99.90
54124;DHT22;55741;53.252;5.788;2023-07-20T02:59:02;13.20;99.90
54124;DHT22;55741;53.252;5.788;2023-07-20T03:01:28;13.10;99.90
54124;DHT22;55741;53.252;5.788;2023-07-20T03:03:55;13.10;99.90
54124;DHT22;55741;53.252;5.788;2023-07-20T03:06:21;13.10;99.90
54124;DHT22;55741;53.252;5.788;2023-07-20T03:08:47;13.00;99.90
54124;DHT22;55741;53.252;5.788;2023-07-20T03:11:14;13.00;99.90
54124;DHT22;55741;53.252;5.788;2023-07-20T03:13:41;13.00;99.90
54124;DHT22;55741;53.252;5.788;2023-07-20T03:16:08;13.00;99.90
54124;DHT22;55741;53.252;5.788;2023-07-20T03:18:39;13.00;99.90
54124;DHT22;55741;53.252;5.788;2023-07-20T03:21:07;13.00;99.90
54124;DHT22;55741;53.252;5.788;2023-07-20T03:23:33;13.00;99.90
54124;DHT22;55741;53.252;5.788;2023-07-20T03:25:59;12.90;99.90
54124;DHT22;55741;53.252;5.788;2023-07-20T03:28:25;12.90;99.90
54124;DHT22;55741;53.252;5.788;2023-07-20T03:30:58;12.90;99.90
54124;DHT22;55741;53.252;5.788;2023-07-20T03:33:27;12.90;99.90
54124;DHT22;55741;53.252;5.788;2023-07-20T03:35:54;12.90;99.90
54124;DHT22;55741;53.252;5.788;2023-07-20T03:38:21;12.90;99.90
54124;DHT22;55741;53.252;5.788;2023-07-20T03:40:59;12.80;99.90
54124;DHT22;55741;53.252;5.788;2023-07-20T03:43:27;12.90;99.90
54124;DHT22;55741;53.252;5.788;2023-07-20T03:45:53;12.90;99.90
54124;DHT22;55741;53.252;5.788;2023-07-20T03:48:21;12.80;99.90
54124;DHT22;55741;53.252;5.788;2023-07-20T03:50:49;12.90;99.90
54124;DHT22;55741;53.252;5.788;2023-07-20T03:53:16;12.90;99.90
54124;DHT22;55741;53.252;5.788;2023-07-20T03:55:45;12.90;99.90
54124;DHT22;55741;53.252;5.788;2023-07-20T03:58:12;12.90;99.90
54124;DHT22;55741;53.252;5.788;2023-07-20T04:00:44;13.00;99.90
54124;DHT22;55741;53.252;5.788;2023-07-20T04:03:10;13.00;99.90
54124;DHT22;55741;53.252;5.788;2023-07-20T04:05:36;13.00;99.90
54124;DHT22;55741;53.252;5.788;2023-07-20T04:08:02;13.00;99.90
54124;DHT22;55741;53.252;5.788;2023-07-20T04:10:27;13.00;99.90
54124;DHT22;55741;53.252;5.788;2023-07-20T04:12:53;13.00;99.90
54124;DHT22;55741;53.252;5.788;2023-07-20T04:15:19;13.00;99.90
54124;DHT22;55741;53.252;5.788;2023-07-20T04:17:45;13.00;99.90
54124;DHT22;55741;53.252;5.788;2023-07-20T04:20:11;13.00;99.90
54124;DHT22;55741;53.252;5.788;2023-07-20T04:22:37;13.10;99.90
54124;DHT22;55741;53.252;5.788;2023-07-20T04:25:04;13.10;99.90
54124;DHT22;55741;53.252;5.788;2023-07-20T04:27:30;13.10;99.90
54124;DHT22;55741;53.252;5.788;2023-07-20T04:29:58;13.10;99.90
54124;DHT22;55741;53.252;5.788;2023-07-20T04:32:25;13.10;99.90
54124;DHT22;55741;53.252;5.788;2023-07-20T04:34:51;13.10;99.90
54124;DHT22;55741;53.252;5.788;2023-07-20T04:37:17;13.20;99.90
54124;DHT22;55741;53.252;5.788;2023-07-20T04:39:43;13.20;99.90
54124;DHT22;55741;53.252;5.788;2023-07-20T04:42:08;13.20;99.90
54124;DHT22;55741;53.252;5.788;2023-07-20T04:44:34;13.30;99.90
54124;DHT22;55741;53.252;5.788;2023-07-20T04:47:00;13.40;99.90
54124;DHT22;55741;53.252;5.788;2023-07-20T04:49:26;13.40;99.90
54124;DHT22;55741;53.252;5.788;2023-07-20T04:51:52;13.40;99.90
54124;DHT22;55741;53.252;5.788;2023-07-20T04:54:17;13.50;99.90
54124;DHT22;55741;53.252;5.788;2023-07-20T04:56:44;13.50;99.90
54124;DHT22;55741;53.252;5.788;2023-07-20T04:59:10;13.60;99.90
54124;DHT22;55741;53.252;5.788;2023-07-20T05:01:37;13.60;99.90
54124;DHT22;55741;53.252;5.788;2023-07-20T05:04:03;13.60;99.90
54124;DHT22;55741;53.252;5.788;2023-07-20T05:06:29;13.70;99.90
54124;DHT22;55741;53.252;5.788;2023-07-20T05:08:55;13.70;99.90
54124;DHT22;55741;53.252;5.788;2023-07-20T05:11:21;13.90;99.90
54124;DHT22;55741;53.252;5.788;2023-07-20T05:13:46;13.90;99.90
54124;DHT22;55741;53.252;5.788;2023-07-20T05:16:12;14.10;99.90
54124;DHT22;55741;53.252;5.788;2023-07-20T05:18:38;14.10;99.90
54124;DHT22;55741;53.252;5.788;2023-07-20T05:21:05;14.30;99.90
54124;DHT22;55741;53.252;5.788;2023-07-20T05:23:31;14.30;99.90
54124;DHT22;55741;53.252;5.788;2023-07-20T05:25:58;14.40;99.90
54124;DHT22;55741;53.252;5.788;2023-07-20T05:28:25;14.50;99.90
54124;DHT22;55741;53.252;5.788;2023-07-20T05:30:52;14.60;99.90
54124;DHT22;55741;53.252;5.788;2023-07-20T05:33:19;14.60;99.90
54124;DHT22;55741;53.252;5.788;2023-07-20T05:35:45;14.60;99.90
54124;DHT22;55741;53.252;5.788;2023-07-20T05:38:11;14.70;99.90
54124;DHT22;55741;53.252;5.788;2023-07-20T05:40:41;14.70;99.90
54124;DHT22;55741;53.252;5.788;2023-07-20T05:43:10;14.70;99.90
54124;DHT22;55741;53.252;5.788;2023-07-20T05:45:36;14.70;99.90
54124;DHT22;55741;53.252;5.788;2023-07-20T05:48:02;14.70;99.90
54124;DHT22;55741;53.252;5.788;2023-07-20T05:50:28;14.80;99.90
54124;DHT22;55741;53.252;5.788;2023-07-20T05:52:54;14.80;99.90
54124;DHT22;55741;53.252;5.788;2023-07-20T05:55:20;14.80;99.90
54124;DHT22;55741;53.252;5.788;2023-07-20T05:57:46;14.90;99.90
54124;DHT22;55741;53.252;5.788;2023-07-20T06:00:14;14.90;99.90
54124;DHT22;55741;53.252;5.788;2023-07-20T06:02:41;14.90;99.90
54124;DHT22;55741;53.252;5.788;2023-07-20T06:05:08;14.90;99.90
54124;DHT22;55741;53.252;5.788;2023-07-20T06:07:37;15.00;99.90
54124;DHT22;55741;53.252;5.788;2023-07-20T06:10:04;15.00;99.90
54124;DHT22;55741;53.252;5.788;2023-07-20T06:12:31;15.00;99.90
54124;DHT22;55741;53.252;5.788;2023-07-20T06:15:01;15.10;99.90
54124;DHT22;55741;53.252;5.788;2023-07-20T06:17:27;15.10;99.90
54124;DHT22;55741;53.252;5.788;2023-07-20T06:19:52;15.20;99.90
54124;DHT22;55741;53.252;5.788;2023-07-20T06:22:18;15.20;99.90
54124;DHT22;55741;53.252;5.788;2023-07-20T06:24:44;15.30;99.90
54124;DHT22;55741;53.252;5.788;2023-07-20T06:27:10;15.30;99.90
54124;DHT22;55741;53.252;5.788;2023-07-20T06:29:37;15.40;99.90
54124;DHT22;55741;53.252;5.788;2023-07-20T06:32:05;15.40;99.90
54124;DHT22;55741;53.252;5.788;2023-07-20T06:34:31;15.50;99.90
54124;DHT22;55741;53.252;5.788;2023-07-20T06:37:03;15.50;99.90
54124;DHT22;55741;53.252;5.788;2023-07-20T06:39:29;15.60;99.90
54124;DHT22;55741;53.252;5.788;2023-07-20T06:41:55;15.60;99.90
54124;DHT22;55741;53.252;5.788;2023-07-20T06:44:21;15.70;99.90
54124;DHT22;55741;53.252;5.788;2023-07-20T06:46:47;15.80;99.90
54124;DHT22;55741;53.252;5.788;2023-07-20T06:49:27;15.90;99.90
54124;DHT22;55741;53.252;5.788;2023-07-20T06:51:54;16.10;99.90
54124;DHT22;55741;53.252;5.788;2023-07-20T06:54:20;16.20;99.90
54124;DHT22;55741;53.252;5.788;2023-07-20T06:56:46;16.40;99.90
54124;DHT22;55741;53.252;5.788;2023-07-20T06:59:12;16.70;99.90
54124;DHT22;55741;53.252;5.788;2023-07-20T07:01:37;16.90;99.90
54124;DHT22;55741;53.252;5.788;2023-07-20T07:04:06;17.10;99.90
54124;DHT22;55741;53.252;5.788;2023-07-20T07:06:32;17.40;99.90
54124;DHT22;55741;53.252;5.788;2023-07-20T07:08:58;17.50;99.90
54124;DHT22;55741;53.252;5.788;2023-07-20T07:11:24;17.70;99.90
54124;DHT22;55741;53.252;5.788;2023-07-20T07:13:50;17.70;99.90
54124;DHT22;55741;53.252;5.788;2023-07-20T07:16:19;17.80;99.90
54124;DHT22;55741;53.252;5.788;2023-07-20T07:18:45;17.70;99.90
54124;DHT22;55741;53.252;5.788;2023-07-20T07:21:11;17.60;99.90
54124;DHT22;55741;53.252;5.788;2023-07-20T07:23:40;17.50;99.90
54124;DHT22;55741;53.252;5.788;2023-07-20T07:26:06;17.50;99.90
54124;DHT22;55741;53.252;5.788;2023-07-20T07:28:32;17.40;99.90
54124;DHT22;55741;53.252;5.788;2023-07-20T07:30:58;17.30;99.90
54124;DHT22;55741;53.252;5.788;2023-07-20T07:33:24;17.40;99.90
54124;DHT22;55741;53.252;5.788;2023-07-20T07:35:51;17.60;99.90
54124;DHT22;55741;53.252;5.788;2023-07-20T07:38:19;17.90;99.90
54124;DHT22;55741;53.252;5.788;2023-07-20T07:40:46;18.10;99.90
54124;DHT22;55741;53.252;5.788;2023-07-20T07:43:12;18.50;99.90
54124;DHT22;55741;53.252;5.788;2023-07-20T07:45:39;18.80;99.90
54124;DHT22;55741;53.252;5.788;2023-07-20T07:48:06;19.10;99.90
54124;DHT22;55741;53.252;5.788;2023-07-20T07:50:32;19.30;99.90
54124;DHT22;55741;53.252;5.788;2023-07-20T07:52:59;19.60;99.90
54124;DHT22;55741;53.252;5.788;2023-07-20T07:55:25;19.70;99.90
54124;DHT22;55741;53.252;5.788;2023-07-20T07:57:54;19.60;99.90
54124;DHT22;55741;53.252;5.788;2023-07-20T08:00:20;19.40;99.90
54124;DHT22;55741;53.252;5.788;2023-07-20T08:02:46;19.40;99.90
54124;DHT22;55741;53.252;5.788;2023-07-20T08:05:16;19.40;99.90
54124;DHT22;55741;53.252;5.788;2023-07-20T08:07:42;19.60;99.90
54124;DHT22;55741;53.252;5.788;2023-07-20T08:10:09;19.80;99.90
54124;DHT22;55741;53.252;5.788;2023-07-20T08:12:35;19.90;99.90
54124;DHT22;55741;53.252;5.788;2023-07-20T08:15:01;19.90;99.90
54124;DHT22;55741;53.252;5.788;2023-07-20T08:17:27;19.90;99.90
54124;DHT22;55741;53.252;5.788;2023-07-20T08:19:53;19.80;99.90
54124;DHT22;55741;53.252;5.788;2023-07-20T08:22:19;19.80;99.90
54124;DHT22;55741;53.252;5.788;2023-07-20T08:24:45;19.80;99.90
54124;DHT22;55741;53.252;5.788;2023-07-20T08:27:11;19.70;99.90
54124;DHT22;55741;53.252;5.788;2023-07-20T08:29:37;19.70;99.90
54124;DHT22;55741;53.252;5.788;2023-07-20T08:32:04;19.70;99.90
54124;DHT22;55741;53.252;5.788;2023-07-20T08:34:31;19.80;99.90
54124;DHT22;55741;53.252;5.788;2023-07-20T08:36:58;20.00;99.90
54124;DHT22;55741;53.252;5.788;2023-07-20T08:39:24;20.20;99.90
54124;DHT22;55741;53.252;5.788;2023-07-20T08:41:50;20.30;99.90
54124;DHT22;55741;53.252;5.788;2023-07-20T08:44:17;20.50;99.90
54124;DHT22;55741;53.252;5.788;2023-07-20T08:46:44;20.80;99.90
54124;DHT22;55741;53.252;5.788;2023-07-20T08:49:11;20.90;99.90
54124;DHT22;55741;53.252;5.788;2023-07-20T08:51:37;21.10;99.90
54124;DHT22;55741;53.252;5.788;2023-07-20T08:54:04;21.20;99.90
54124;DHT22;55741;53.252;5.788;2023-07-20T08:56:33;21.30;99.90
54124;DHT22;55741;53.252;5.788;2023-07-20T08:58:59;21.40;99.90
54124;DHT22;55741;53.252;5.788;2023-07-20T09:01:27;21.50;99.90
54124;DHT22;55741;53.252;5.788;2023-07-20T09:03:54;21.60;99.90
54124;DHT22;55741;53.252;5.788;2023-07-20T09:06:21;21.70;99.90
54124;DHT22;55741;53.252;5.788;2023-07-20T09:08:47;21.80;99.90
54124;DHT22;55741;53.252;5.788;2023-07-20T09:11:13;21.90;99.90
54124;DHT22;55741;53.252;5.788;2023-07-20T09:13:42;22.00;99.90
54124;DHT22;55741;53.252;5.788;2023-07-20T09:16:09;22.10;99.90
54124;DHT22;55741;53.252;5.788;2023-07-20T09:18:38;22.00;99.90
54124;DHT22;55741;53.252;5.788;2023-07-20T09:21:05;21.90;99.90
54124;DHT22;55741;53.252;5.788;2023-07-20T09:23:38;21.80;99.90
54124;DHT22;55741;53.252;5.788;2023-07-20T09:26:14;21.80;99.90
54124;DHT22;55741;53.252;5.788;2023-07-20T09:28:52;21.90;99.90
54124;DHT22;55741;53.252;5.788;2023-07-20T09:31:19;21.80;99.80
54124;DHT22;55741;53.252;5.788;2023-07-20T09:33:46;21.70;99.90
54124;DHT22;55741;53.252;5.788;2023-07-20T09:36:36;21.80;99.90
54124;DHT22;55741;53.252;5.788;2023-07-20T09:39:03;22.00;99.90
54124;DHT22;55741;53.252;5.788;2023-07-20T09:41:39;22.00;99.90
54124;DHT22;55741;53.252;5.788;2023-07-20T09:44:06;21.90;99.90
54124;DHT22;55741;53.252;5.788;2023-07-20T09:46:49;21.80;99.90
54124;DHT22;55741;53.252;5.788;2023-07-20T09:49:17;21.70;99.90
54124;DHT22;55741;53.252;5.788;2023-07-20T09:51:45;21.60;99.90
54124;DHT22;55741;53.252;5.788;2023-07-20T09:54:13;21.70;99.90
54124;DHT22;55741;53.252;5.788;2023-07-20T09:56:39;21.80;99.90
54124;DHT22;55741;53.252;5.788;2023-07-20T09:59:06;21.80;99.90
54124;DHT22;55741;53.252;5.788;2023-07-20T10:01:34;21.70;99.70
54124;DHT22;55741;53.252;5.788;2023-07-20T10:04:03;21.60;99.70
54124;DHT22;55741;53.252;5.788;2023-07-20T10:06:33;21.60;99.90
54124;DHT22;55741;53.252;5.788;2023-07-20T10:09:03;21.80;99.90
54124;DHT22;55741;53.252;5.788;2023-07-20T10:11:31;21.90;99.90
54124;DHT22;55741;53.252;5.788;2023-07-20T10:13:58;22.20;99.90
54124;DHT22;55741;53.252;5.788;2023-07-20T10:16:50;22.10;99.80
54124;DHT22;55741;53.252;5.788;2023-07-20T10:19:23;22.20;99.60
54124;DHT22;55741;53.252;5.788;2023-07-20T10:21:59;22.30;99.10
54124;DHT22;55741;53.252;5.788;2023-07-20T10:24:27;22.40;99.40
54124;DHT22;55741;53.252;5.788;2023-07-20T10:26:55;22.60;99.60
54124;DHT22;55741;53.252;5.788;2023-07-20T10:29:22;22.80;99.40
54124;DHT22;55741;53.252;5.788;2023-07-20T10:31:48;22.80;98.80
54124;DHT22;55741;53.252;5.788;2023-07-20T10:34:15;22.60;98.50
54124;DHT22;55741;53.252;5.788;2023-07-20T10:36:45;22.50;98.50
54124;DHT22;55741;53.252;5.788;2023-07-20T10:39:25;22.40;99.20
54124;DHT22;55741;53.252;5.788;2023-07-20T10:42:10;22.40;99.10
54124;DHT22;55741;53.252;5.788;2023-07-20T10:44:39;22.50;99.10
54124;DHT22;55741;53.252;5.788;2023-07-20T10:47:12;22.50;98.80
54124;DHT22;55741;53.252;5.788;2023-07-20T10:49:58;22.50;98.80
54124;DHT22;55741;53.252;5.788;2023-07-20T10:52:26;22.60;99.10
54124;DHT22;55741;53.252;5.788;2023-07-20T10:54:51;22.60;98.50
54124;DHT22;55741;53.252;5.788;2023-07-20T10:57:24;22.80;98.40
54124;DHT22;55741;53.252;5.788;2023-07-20T10:59:50;22.90;98.30
54124;DHT22;55741;53.252;5.788;2023-07-20T11:02:20;23.10;98.10
54124;DHT22;55741;53.252;5.788;2023-07-20T11:04:47;23.20;98.20
54124;DHT22;55741;53.252;5.788;2023-07-20T11:07:17;23.30;98.40
54124;DHT22;55741;53.252;5.788;2023-07-20T11:09:43;23.40;98.00
54124;DHT22;55741;53.252;5.788;2023-07-20T11:12:11;23.30;97.80
54124;DHT22;55741;53.252;5.788;2023-07-20T11:14:57;23.30;97.80
54124;DHT22;55741;53.252;5.788;2023-07-20T11:17:30;23.20;97.10
54124;DHT22;55741;53.252;5.788;2023-07-20T11:19:57;23.10;97.30
54124;DHT22;55741;53.252;5.788;2023-07-20T11:22:24;23.00;97.50
54124;DHT22;55741;53.252;5.788;2023-07-20T11:24:49;22.90;97.90
54124;DHT22;55741;53.252;5.788;2023-07-20T11:27:16;22.90;97.90
54124;DHT22;55741;53.252;5.788;2023-07-20T11:29:45;22.80;97.90
54124;DHT22;55741;53.252;5.788;2023-07-20T11:32:11;22.80;97.70
54124;DHT22;55741;53.252;5.788;2023-07-20T11:34:37;22.90;97.60
54124;DHT22;55741;53.252;5.788;2023-07-20T11:37:03;23.00;98.00
54124;DHT22;55741;53.252;5.788;2023-07-20T11:39:29;23.10;97.30
54124;DHT22;55741;53.252;5.788;2023-07-20T11:41:56;23.00;97.30
54124;DHT22;55741;53.252;5.788;2023-07-20T11:44:24;23.00;97.10
54124;DHT22;55741;53.252;5.788;2023-07-20T11:47:09;23.20;96.80
54124;DHT22;55741;53.252;5.788;2023-07-20T11:49:41;23.30;96.60
54124;DHT22;55741;53.252;5.788;2023-07-20T11:52:10;23.40;96.10
54124;DHT22;55741;53.252;5.788;2023-07-20T11:54:38;23.50;95.80
54124;DHT22;55741;53.252;5.788;2023-07-20T11:57:05;23.50;96.30
54124;DHT22;55741;53.252;5.788;2023-07-20T11:59:31;23.70;95.90
54124;DHT22;55741;53.252;5.788;2023-07-20T12:02:01;23.70;95.60
54124;DHT22;55741;53.252;5.788;2023-07-20T12:04:30;23.80;95.80
54124;DHT22;55741;53.252;5.788;2023-07-20T12:06:56;23.90;95.30
54124;DHT22;55741;53.252;5.788;2023-07-20T12:09:24;24.00;95.30
54124;DHT22;55741;53.252;5.788;2023-07-20T12:11:50;24.10;94.90
54124;DHT22;55741;53.252;5.788;2023-07-20T12:14:16;24.10;94.80
54124;DHT22;55741;53.252;5.788;2023-07-20T12:16:42;24.10;95.50
54124;DHT22;55741;53.252;5.788;2023-07-20T12:19:12;24.20;95.60
54124;DHT22;55741;53.252;5.788;2023-07-20T12:21:40;24.40;94.80
54124;DHT22;55741;53.252;5.788;2023-07-20T12:24:08;24.40;95.00
54124;DHT22;55741;53.252;5.788;2023-07-20T12:26:37;24.60;95.50
54124;DHT22;55741;53.252;5.788;2023-07-20T12:29:04;24.70;95.60
54124;DHT22;55741;53.252;5.788;2023-07-20T12:31:34;24.80;96.00
54124;DHT22;55741;53.252;5.788;2023-07-20T12:34:01;24.90;95.50
54124;DHT22;55741;53.252;5.788;2023-07-20T12:36:27;24.90;94.70
54124;DHT22;55741;53.252;5.788;2023-07-20T12:38:53;24.60;94.50
54124;DHT22;55741;53.252;5.788;2023-07-20T12:41:19;24.50;94.80
54124;DHT22;55741;53.252;5.788;2023-07-20T12:43:46;24.40;94.20
54124;DHT22;55741;53.252;5.788;2023-07-20T12:46:12;24.10;94.20
54124;DHT22;55741;53.252;5.788;2023-07-20T12:48:39;24.00;94.50
54124;DHT22;55741;53.252;5.788;2023-07-20T12:51:08;23.90;94.50
54124;DHT22;55741;53.252;5.788;2023-07-20T12:53:34;24.00;94.70
54124;DHT22;55741;53.252;5.788;2023-07-20T12:56:00;24.00;94.60
54124;DHT22;55741;53.252;5.788;2023-07-20T12:58:26;24.00;94.20
54124;DHT22;55741;53.252;5.788;2023-07-20T13:00:52;24.10;93.70
54124;DHT22;55741;53.252;5.788;2023-07-20T13:03:18;23.80;93.80
54124;DHT22;55741;53.252;5.788;2023-07-20T13:05:45;23.80;93.90
54124;DHT22;55741;53.252;5.788;2023-07-20T13:08:11;23.80;94.10
54124;DHT22;55741;53.252;5.788;2023-07-20T13:10:39;23.90;93.50
54124;DHT22;55741;53.252;5.788;2023-07-20T13:13:05;24.00;93.10
54124;DHT22;55741;53.252;5.788;2023-07-20T13:15:32;24.20;93.80
54124;DHT22;55741;53.252;5.788;2023-07-20T13:17:59;24.30;93.50
54124;DHT22;55741;53.252;5.788;2023-07-20T13:20:26;24.30;92.60
54124;DHT22;55741;53.252;5.788;2023-07-20T13:22:52;24.40;92.90
54124;DHT22;55741;53.252;5.788;2023-07-20T13:25:18;24.30;92.30
54124;DHT22;55741;53.252;5.788;2023-07-20T13:27:46;24.30;92.40
54124;DHT22;55741;53.252;5.788;2023-07-20T13:30:12;24.30;92.50
54124;DHT22;55741;53.252;5.788;2023-07-20T13:32:45;24.40;92.60
54124;DHT22;55741;53.252;5.788;2023-07-20T13:35:11;24.30;92.60
54124;DHT22;55741;53.252;5.788;2023-07-20T13:37:38;24.30;92.20
54124;DHT22;55741;53.252;5.788;2023-07-20T13:40:04;24.30;92.10
54124;DHT22;55741;53.252;5.788;2023-07-20T13:42:34;24.20;91.80
54124;DHT22;55741;53.252;5.788;2023-07-20T13:45:00;24.10;92.10
54124;DHT22;55741;53.252;5.788;2023-07-20T13:47:26;24.20;92.40
54124;DHT22;55741;53.252;5.788;2023-07-20T13:49:52;24.20;91.50
54124;DHT22;55741;53.252;5.788;2023-07-20T13:52:18;24.10;90.80
54124;DHT22;55741;53.252;5.788;2023-07-20T13:54:44;24.00;90.60
54124;DHT22;55741;53.252;5.788;2023-07-20T13:57:10;23.90;91.30
54124;DHT22;55741;53.252;5.788;2023-07-20T13:59:36;23.90;91.60
54124;DHT22;55741;53.252;5.788;2023-07-20T14:02:02;24.00;91.80
54124;DHT22;55741;53.252;5.788;2023-07-20T14:04:28;24.00;91.70
54124;DHT22;55741;53.252;5.788;2023-07-20T14:06:54;24.10;91.20
54124;DHT22;55741;53.252;5.788;2023-07-20T14:09:20;24.10;91.30
54124;DHT22;55741;53.252;5.788;2023-07-20T14:11:47;24.20;91.10
54124;DHT22;55741;53.252;5.788;2023-07-20T14:14:13;24.30;90.80
54124;DHT22;55741;53.252;5.788;2023-07-20T14:16:39;24.20;90.90
54124;DHT22;55741;53.252;5.788;2023-07-20T14:19:05;24.10;91.20
54124;DHT22;55741;53.252;5.788;2023-07-20T14:21:31;24.10;90.20
54124;DHT22;55741;53.252;5.788;2023-07-20T14:23:57;24.00;89.80
54124;DHT22;55741;53.252;5.788;2023-07-20T14:26:23;24.10;89.80
54124;DHT22;55741;53.252;5.788;2023-07-20T14:28:50;24.10;87.40
54124;DHT22;55741;53.252;5.788;2023-07-20T14:31:16;24.10;86.50
54124;DHT22;55741;53.252;5.788;2023-07-20T14:33:41;23.90;89.60
54124;DHT22;55741;53.252;5.788;2023-07-20T14:36:07;23.80;91.00
54124;DHT22;55741;53.252;5.788;2023-07-20T14:38:34;23.80;90.80
54124;DHT22;55741;53.252;5.788;2023-07-20T14:41:00;23.80;90.90
54124;DHT22;55741;53.252;5.788;2023-07-20T14:43:26;23.70;90.30
54124;DHT22;55741;53.252;5.788;2023-07-20T14:45:52;23.70;90.80
54124;DHT22;55741;53.252;5.788;2023-07-20T14:48:18;23.50;90.70
54124;DHT22;55741;53.252;5.788;2023-07-20T14:50:44;23.30;90.90
54124;DHT22;55741;53.252;5.788;2023-07-20T14:53:15;23.20;91.40
54124;DHT22;55741;53.252;5.788;2023-07-20T14:55:42;23.20;91.50
54124;DHT22;55741;53.252;5.788;2023-07-20T14:58:08;23.30;91.60
54124;DHT22;55741;53.252;5.788;2023-07-20T15:00:34;23.20;91.90
54124;DHT22;55741;53.252;5.788;2023-07-20T15:03:00;23.20;91.70
54124;DHT22;55741;53.252;5.788;2023-07-20T15:05:26;23.20;91.60
54124;DHT22;55741;53.252;5.788;2023-07-20T15:07:53;23.40;91.30
54124;DHT22;55741;53.252;5.788;2023-07-20T15:10:19;23.40;91.30
54124;DHT22;55741;53.252;5.788;2023-07-20T15:12:47;23.30;91.30
54124;DHT22;55741;53.252;5.788;2023-07-20T15:15:13;23.30;91.70
54124;DHT22;55741;53.252;5.788;2023-07-20T15:17:42;23.30;91.80
54124;DHT22;55741;53.252;5.788;2023-07-20T15:20:10;23.20;91.40
54124;DHT22;55741;53.252;5.788;2023-07-20T15:22:36;23.20;91.70
54124;DHT22;55741;53.252;5.788;2023-07-20T15:25:03;23.20;91.70
54124;DHT22;55741;53.252;5.788;2023-07-20T15:27:30;23.30;91.80
54124;DHT22;55741;53.252;5.788;2023-07-20T15:29:57;23.30;92.10
54124;DHT22;55741;53.252;5.788;2023-07-20T15:32:22;23.30;92.00
54124;DHT22;55741;53.252;5.788;2023-07-20T15:34:48;23.30;90.30
54124;DHT22;55741;53.252;5.788;2023-07-20T15:37:14;23.20;91.30
54124;DHT22;55741;53.252;5.788;2023-07-20T15:39:40;23.20;92.00